createdAt,value
2018-08-08T00:00:26.836Z,8.45
2018-08-08T00:01:00.770Z,8.55
2018-08-08T00:01:34.971Z,9.33
2018-08-08T00:02:08.827Z,8.33
2018-08-08T00:02:42.621Z,8.73
2018-08-08T00:03:16.435Z,9.18
2018-08-08T00:03:50.382Z,8.68
2018-08-08T00:04:24.256Z,8.15
2018-08-08T00:04:58.652Z,14.35
2018-08-08T00:05:32.859Z,8.33
2018-08-08T00:06:07.111Z,9.43
2018-08-08T00:06:41.069Z,10.05
2018-08-08T00:07:15.083Z,8.48
2018-08-08T00:07:49.093Z,8.73
2018-08-08T00:08:23.187Z,12.30
2018-08-08T00:08:57.238Z,9.28
2018-08-08T00:09:31.285Z,8.13
2018-08-08T00:10:05.614Z,8.78
2018-08-08T00:10:39.267Z,9.55
2018-08-08T00:11:13.058Z,8.68
2018-08-08T00:11:46.989Z,7.97
2018-08-08T00:12:20.827Z,9.70
2018-08-08T00:12:54.742Z,8.48
2018-08-08T00:13:28.553Z,8.50
2018-08-08T00:14:02.751Z,8.78
2018-08-08T00:14:37.142Z,8.28
2018-08-08T00:15:12.195Z,8.50
2018-08-08T00:15:46.067Z,8.55
2018-08-08T00:16:19.860Z,8.20
2018-08-08T00:16:53.851Z,8.58
2018-08-08T00:17:27.856Z,8.53
2018-08-08T00:18:01.687Z,8.23
2018-08-08T00:18:35.914Z,8.73
2018-08-08T00:19:09.715Z,8.63
2018-08-08T00:19:43.516Z,8.80
2018-08-08T00:20:17.659Z,8.78
2018-08-08T00:20:51.360Z,9.75
2018-08-08T00:21:25.216Z,9.55
2018-08-08T00:21:59.421Z,8.70
2018-08-08T00:22:33.544Z,13.05
2018-08-08T00:23:07.481Z,8.73
2018-08-08T00:23:41.443Z,9.85
2018-08-08T00:24:15.500Z,9.15
2018-08-08T00:24:49.267Z,9.18
2018-08-08T00:25:23.517Z,9.98
2018-08-08T00:25:57.376Z,9.00
2018-08-08T00:26:31.309Z,8.68
2018-08-08T00:27:05.464Z,8.88
2018-08-08T00:27:40.027Z,9.30
2018-08-08T00:28:13.895Z,8.30
2018-08-08T00:28:47.812Z,8.93
2018-08-08T00:29:21.760Z,8.33
2018-08-08T00:29:55.651Z,9.85
2018-08-08T00:30:29.324Z,9.53
2018-08-08T00:31:03.382Z,8.85
2018-08-08T00:31:37.336Z,8.83
2018-08-08T00:32:11.317Z,8.43
2018-08-08T00:32:45.568Z,9.15
2018-08-08T00:33:19.499Z,8.68
2018-08-08T00:33:53.542Z,9.05
2018-08-08T00:34:27.625Z,9.00
2018-08-08T00:35:01.581Z,8.83
2018-08-08T00:35:35.416Z,8.20
2018-08-08T00:36:09.364Z,9.65
2018-08-08T00:36:43.224Z,8.35
2018-08-08T00:37:17.090Z,9.43
2018-08-08T00:37:51.163Z,11.03
2018-08-08T00:38:24.947Z,8.65
2018-08-08T00:38:58.903Z,7.67
2018-08-08T00:39:38.465Z,8.45
2018-08-08T00:40:13.503Z,7.62
2018-08-08T00:40:47.283Z,9.20
2018-08-08T00:41:21.045Z,11.00
2018-08-08T00:41:54.829Z,10.25
2018-08-08T00:42:28.643Z,10.40
2018-08-08T00:43:02.540Z,10.98
2018-08-08T00:43:36.448Z,8.88
2018-08-08T00:44:10.333Z,7.70
2018-08-08T00:44:44.094Z,8.05
2018-08-08T00:45:18.029Z,9.48
2018-08-08T00:45:52.099Z,9.18
2018-08-08T00:46:26.002Z,8.85
2018-08-08T00:46:59.789Z,9.23
2018-08-08T00:47:33.599Z,8.55
2018-08-08T00:48:07.650Z,13.43
2018-08-08T00:48:41.476Z,10.10
2018-08-08T00:49:15.375Z,7.28
2018-08-08T00:49:49.167Z,11.50
2018-08-08T00:50:22.837Z,12.90
2018-08-08T00:50:56.943Z,10.72
2018-08-08T00:51:30.714Z,12.13
2018-08-08T00:52:05.251Z,8.95
2018-08-08T00:52:39.679Z,9.98
2018-08-08T00:53:13.342Z,7.90
2018-08-08T00:53:47.248Z,9.28
2018-08-08T00:54:20.999Z,9.73
2018-08-08T00:54:54.926Z,8.10
2018-08-08T00:55:28.892Z,9.98
2018-08-08T00:56:02.823Z,9.65
2018-08-08T00:56:36.696Z,10.03
2018-08-08T00:57:10.630Z,10.82
2018-08-08T00:57:44.579Z,9.20
2018-08-08T00:58:18.382Z,9.28
2018-08-08T00:58:52.136Z,8.63
2018-08-08T00:59:26.053Z,11.85
2018-08-08T00:59:59.873Z,10.68
2018-08-08T01:00:33.698Z,12.70
2018-08-08T01:01:07.532Z,10.43
2018-08-08T01:01:41.367Z,10.32
2018-08-08T01:02:15.248Z,7.72
2018-08-08T01:02:48.983Z,7.72
2018-08-08T01:03:22.698Z,10.03
2018-08-08T01:03:56.475Z,13.85
2018-08-08T01:04:30.242Z,13.48
2018-08-08T01:05:06.028Z,14.65
2018-08-08T01:05:40.215Z,10.23
2018-08-08T01:06:14.306Z,7.65
2018-08-08T01:06:48.150Z,7.85
2018-08-08T01:07:21.876Z,9.58
2018-08-08T01:07:55.791Z,10.00
2018-08-08T01:08:29.733Z,8.50
2018-08-08T01:09:05.490Z,8.05
2018-08-08T01:09:39.460Z,7.08
2018-08-08T01:10:13.321Z,11.88
2018-08-08T01:10:47.279Z,10.25
2018-08-08T01:11:21.104Z,8.98
2018-08-08T01:11:55.042Z,15.45
2018-08-08T01:12:28.966Z,8.48
2018-08-08T01:13:03.125Z,8.95
2018-08-08T01:13:37.024Z,11.25
2018-08-08T01:14:11.105Z,9.30
2018-08-08T01:14:45.306Z,9.50
2018-08-08T01:15:19.223Z,11.15
2018-08-08T01:15:53.111Z,12.55
2018-08-08T01:16:26.962Z,9.50
2018-08-08T01:17:00.819Z,15.10
2018-08-08T01:17:34.808Z,10.50
2018-08-08T01:18:11.260Z,11.48
2018-08-08T01:18:45.188Z,10.28
2018-08-08T01:19:19.048Z,8.28
2018-08-08T01:19:52.942Z,11.08
2018-08-08T01:20:27.072Z,10.93
2018-08-08T01:21:00.953Z,14.70
2018-08-08T01:21:34.767Z,13.48
2018-08-08T01:22:08.725Z,12.45
2018-08-08T01:22:42.671Z,12.65
2018-08-08T01:23:16.513Z,10.40
2018-08-08T01:23:50.467Z,13.83
2018-08-08T01:24:24.286Z,12.40
2018-08-08T01:24:58.212Z,14.38
2018-08-08T01:25:32.012Z,13.65
2018-08-08T01:26:05.907Z,18.85
2018-08-08T01:26:40.057Z,16.95
2018-08-08T01:27:14.025Z,13.20
2018-08-08T01:27:47.978Z,14.03
2018-08-08T01:28:21.993Z,14.55
2018-08-08T01:28:55.897Z,16.93
2018-08-08T01:29:29.971Z,15.70
2018-08-08T01:30:07.211Z,15.03
2018-08-08T01:30:41.374Z,20.23
2018-08-08T01:31:15.203Z,14.40
2018-08-08T01:31:49.316Z,20.52
2018-08-08T01:32:23.287Z,18.25
2018-08-08T01:32:57.082Z,18.90
2018-08-08T01:33:30.975Z,20.00
2018-08-08T01:34:05.191Z,17.75
2018-08-08T01:34:39.110Z,13.20
2018-08-08T01:35:13.212Z,19.12
2018-08-08T01:35:47.036Z,13.22
2018-08-08T01:36:20.819Z,15.25
2018-08-08T01:36:54.563Z,20.80
2018-08-08T01:37:28.375Z,22.73
2018-08-08T01:38:02.085Z,16.00
2018-08-08T01:38:36.041Z,19.07
2018-08-08T01:39:10.578Z,17.65
2018-08-08T01:39:44.495Z,17.30
2018-08-08T01:40:18.760Z,13.40
2018-08-08T01:40:52.704Z,12.18
2018-08-08T01:41:26.644Z,21.20
2018-08-08T01:42:00.429Z,21.55
2018-08-08T01:42:34.418Z,17.27
2018-08-08T01:43:08.355Z,15.85
2018-08-08T01:43:42.231Z,18.82
2018-08-08T01:44:16.128Z,14.98
2018-08-08T01:44:49.931Z,17.85
2018-08-08T01:45:23.752Z,24.25
2018-08-08T01:45:57.707Z,22.15
2018-08-08T01:46:31.376Z,21.15
2018-08-08T01:47:05.391Z,14.70
2018-08-08T01:47:39.815Z,14.13
2018-08-08T01:48:13.655Z,17.07
2018-08-08T01:48:47.550Z,17.62
2018-08-08T01:49:21.396Z,14.80
2018-08-08T01:49:55.148Z,16.15
2018-08-08T01:50:29.054Z,28.57
2018-08-08T01:51:03.010Z,19.82
2018-08-08T01:51:36.876Z,18.90
2018-08-08T01:52:10.860Z,19.65
2018-08-08T01:52:44.864Z,17.05
2018-08-08T01:53:18.799Z,18.80
2018-08-08T01:53:52.653Z,13.70
2018-08-08T01:54:26.776Z,13.38
2018-08-08T01:55:00.427Z,17.52
2018-08-08T01:55:34.282Z,20.70
2018-08-08T01:56:07.907Z,15.23
2018-08-08T01:56:41.682Z,19.30
2018-08-08T01:57:15.592Z,20.88
2018-08-08T01:57:49.611Z,17.92
2018-08-08T01:58:23.377Z,23.75
2018-08-08T01:58:57.920Z,23.92
2018-08-08T01:59:31.586Z,20.37
2018-08-08T02:00:13.687Z,20.00
2018-08-08T02:00:47.643Z,19.67
2018-08-08T02:01:21.572Z,19.60
2018-08-08T02:01:55.576Z,15.08
2018-08-08T02:02:29.537Z,20.55
2018-08-08T02:03:03.300Z,19.20
2018-08-08T02:03:37.222Z,29.00
2018-08-08T02:04:10.927Z,20.50
2018-08-08T02:04:44.978Z,22.87
2018-08-08T02:05:19.096Z,21.35
2018-08-08T02:05:59.344Z,20.97
2018-08-08T02:06:33.184Z,20.37
2018-08-08T02:07:07.297Z,22.65
2018-08-08T02:07:41.433Z,15.95
2018-08-08T02:08:15.235Z,22.65
2018-08-08T02:08:49.317Z,25.23
2018-08-08T02:09:23.495Z,22.32
2018-08-08T02:09:57.378Z,18.77
2018-08-08T02:10:31.242Z,22.25
2018-08-08T02:11:05.209Z,25.95
2018-08-08T02:11:38.883Z,15.63
2018-08-08T02:12:12.937Z,21.73
2018-08-08T02:12:47.308Z,24.67
2018-08-08T02:13:21.232Z,19.23
2018-08-08T02:13:55.004Z,22.87
2018-08-08T02:14:29.043Z,22.40
2018-08-08T02:15:04.375Z,27.45
2018-08-08T02:15:38.265Z,22.75
2018-08-08T02:16:12.099Z,18.32
2018-08-08T02:16:46.268Z,20.88
2018-08-08T02:17:20.127Z,20.65
2018-08-08T02:17:54.147Z,24.60
2018-08-08T02:18:28.695Z,19.73
2018-08-08T02:19:02.540Z,24.70
2018-08-08T02:19:36.403Z,24.25
2018-08-08T02:20:11.176Z,19.60
2018-08-08T02:20:45.259Z,25.23
2018-08-08T02:21:19.152Z,24.57
2018-08-08T02:21:53.328Z,27.60
2018-08-08T02:22:27.462Z,24.67
2018-08-08T02:23:01.144Z,24.15
2018-08-08T02:23:34.836Z,20.90
2018-08-08T02:24:08.827Z,23.27
2018-08-08T02:24:42.767Z,24.67
2018-08-08T02:25:17.029Z,33.50
2018-08-08T02:25:50.764Z,24.18
2018-08-08T02:26:24.697Z,29.42
2018-08-08T02:26:58.728Z,28.95
2018-08-08T02:27:32.548Z,26.15
2018-08-08T02:28:06.645Z,21.55
2018-08-08T02:28:40.421Z,22.90
2018-08-08T02:29:14.258Z,25.10
2018-08-08T02:29:48.202Z,23.10
2018-08-08T02:30:22.766Z,27.80
2018-08-08T02:30:56.885Z,22.20
2018-08-08T02:31:30.767Z,23.12
2018-08-08T02:32:04.840Z,21.97
2018-08-08T02:32:38.832Z,24.87
2018-08-08T02:33:12.609Z,32.30
2018-08-08T02:33:46.475Z,19.30
2018-08-08T02:34:20.417Z,26.17
2018-08-08T02:34:54.392Z,30.00
2018-08-08T02:35:28.449Z,31.15
2018-08-08T02:36:03.092Z,26.33
2018-08-08T02:36:36.864Z,23.12
2018-08-08T02:37:10.816Z,26.95
2018-08-08T02:37:44.751Z,22.15
2018-08-08T02:38:18.633Z,25.35
2018-08-08T02:38:52.697Z,19.80
2018-08-08T02:39:26.451Z,20.10
2018-08-08T02:40:00.625Z,28.15
2018-08-08T02:40:34.344Z,23.60
2018-08-08T02:41:08.825Z,26.45
2018-08-08T02:41:42.632Z,25.85
2018-08-08T02:42:16.523Z,20.30
2018-08-08T02:42:50.482Z,24.35
2018-08-08T02:43:24.826Z,27.90
2018-08-08T02:43:58.676Z,19.35
2018-08-08T02:44:32.606Z,20.95
2018-08-08T02:45:09.787Z,22.37
2018-08-08T02:45:43.464Z,20.15
2018-08-08T02:46:17.481Z,30.12
2018-08-08T02:46:51.470Z,22.52
2018-08-08T02:47:25.390Z,19.98
2018-08-08T02:47:59.596Z,23.42
2018-08-08T02:48:33.428Z,17.12
2018-08-08T02:49:07.424Z,19.70
2018-08-08T02:49:41.309Z,20.00
2018-08-08T02:50:17.707Z,20.77
2018-08-08T02:50:51.511Z,26.30
2018-08-08T02:51:26.600Z,24.35
2018-08-08T02:52:00.617Z,22.93
2018-08-08T02:52:34.504Z,22.73
2018-08-08T02:53:08.394Z,24.77
2018-08-08T02:53:42.425Z,26.68
2018-08-08T02:54:16.233Z,21.93
2018-08-08T02:54:50.149Z,25.25
2018-08-08T02:55:24.298Z,23.07
2018-08-08T02:55:58.205Z,25.05
2018-08-08T02:56:32.192Z,25.15
2018-08-08T02:57:05.987Z,20.37
2018-08-08T02:57:40.501Z,20.77
2018-08-08T02:58:14.342Z,21.00
2018-08-08T02:58:48.055Z,21.20
2018-08-08T02:59:21.833Z,19.87
2018-08-08T02:59:55.883Z,16.65
2018-08-08T03:00:29.751Z,23.77
2018-08-08T03:01:03.781Z,25.75
2018-08-08T03:01:37.680Z,19.82
2018-08-08T03:02:11.491Z,27.15
2018-08-08T03:02:45.542Z,17.15
2018-08-08T03:03:19.500Z,23.87
2018-08-08T03:03:54.172Z,18.43
2018-08-08T03:04:28.209Z,19.43
2018-08-08T03:05:02.681Z,28.55
2018-08-08T03:05:36.335Z,22.70
2018-08-08T03:06:10.380Z,20.77
2018-08-08T03:06:44.136Z,21.27
2018-08-08T03:07:17.948Z,27.80
2018-08-08T03:07:51.908Z,17.42
2018-08-08T03:08:25.882Z,21.90
2018-08-08T03:08:59.717Z,21.37
2018-08-08T03:09:33.528Z,20.72
2018-08-08T03:10:10.072Z,24.18
2018-08-08T03:10:43.949Z,18.98
2018-08-08T03:11:17.774Z,21.80
2018-08-08T03:11:51.474Z,20.12
2018-08-08T03:12:25.698Z,18.57
2018-08-08T03:12:59.880Z,21.57
2018-08-08T03:13:34.043Z,26.57
2018-08-08T03:14:08.189Z,21.93
2018-08-08T03:14:41.779Z,21.17
2018-08-08T03:15:16.890Z,24.50
2018-08-08T03:15:50.515Z,25.12
2018-08-08T03:16:24.346Z,25.00
2018-08-08T03:16:58.446Z,28.32
2018-08-08T03:17:32.322Z,24.23
2018-08-08T03:19:11.555Z,18.80
2018-08-08T03:19:45.570Z,23.27
2018-08-08T03:20:19.152Z,23.38
2018-08-08T03:20:52.742Z,23.25
2018-08-08T03:21:26.427Z,28.83
2018-08-08T03:22:00.612Z,23.70
2018-08-08T03:22:34.690Z,21.27
2018-08-08T03:23:08.794Z,20.62
2018-08-08T03:23:42.546Z,31.65
2018-08-08T03:24:16.467Z,18.85
2018-08-08T03:24:50.431Z,20.35
2018-08-08T03:25:24.360Z,28.73
2018-08-08T03:25:58.190Z,24.02
2018-08-08T03:26:32.092Z,30.50
2018-08-08T03:27:06.283Z,20.95
2018-08-08T03:27:40.175Z,18.80
2018-08-08T03:28:14.035Z,17.87
2018-08-08T03:28:47.957Z,21.97
2018-08-08T03:29:21.556Z,16.70
2018-08-08T03:29:55.565Z,23.75
2018-08-08T03:30:29.445Z,18.95
2018-08-08T03:31:03.703Z,24.15
2018-08-08T03:31:37.649Z,22.02
2018-08-08T03:32:11.440Z,20.23
2018-08-08T03:32:45.326Z,17.77
2018-08-08T03:33:19.227Z,20.47
2018-08-08T03:33:53.152Z,22.60
2018-08-08T03:34:27.309Z,20.75
2018-08-08T03:35:01.231Z,23.40
2018-08-08T03:35:35.232Z,25.68
2018-08-08T03:36:09.112Z,19.70
2018-08-08T03:36:42.820Z,30.95
2018-08-08T03:37:16.685Z,17.27
2018-08-08T03:37:50.450Z,26.05
2018-08-08T03:38:24.215Z,16.87
2018-08-08T03:38:57.953Z,18.95
2018-08-08T03:39:32.070Z,22.13
2018-08-08T03:40:07.593Z,23.75
2018-08-08T03:40:41.611Z,25.12
2018-08-08T03:41:15.335Z,18.30
2018-08-08T03:41:49.167Z,21.75
2018-08-08T03:42:23.209Z,19.20
2018-08-08T03:42:57.168Z,25.62
2018-08-08T03:43:30.811Z,21.15
2018-08-08T03:44:05.105Z,17.57
2018-08-08T03:44:39.379Z,23.27
2018-08-08T03:45:14.543Z,32.95
2018-08-08T03:45:48.392Z,19.17
2018-08-08T03:46:22.245Z,19.85
2018-08-08T03:46:56.224Z,16.55
2018-08-08T03:47:30.044Z,19.12
2018-08-08T03:48:04.252Z,32.00
2018-08-08T03:48:38.175Z,27.30
2018-08-08T03:49:11.955Z,27.75
2018-08-08T03:49:46.053Z,20.97
2018-08-08T03:50:19.824Z,23.15
2018-08-08T03:50:53.633Z,21.20
2018-08-08T03:51:27.322Z,34.73
2018-08-08T03:52:02.494Z,23.07
2018-08-08T03:52:36.660Z,25.97
2018-08-08T03:53:10.613Z,22.40
2018-08-08T03:53:44.311Z,25.88
2018-08-08T03:54:18.034Z,21.85
2018-08-08T03:54:51.776Z,21.82
2018-08-08T03:55:25.465Z,23.77
2018-08-08T03:55:59.388Z,19.63
2018-08-08T03:56:33.428Z,27.03
2018-08-08T03:57:07.617Z,18.10
2018-08-08T03:57:42.088Z,21.73
2018-08-08T03:58:15.816Z,20.70
2018-08-08T03:58:49.884Z,21.77
2018-08-08T03:59:23.650Z,27.48
2018-08-08T03:59:57.654Z,23.15
2018-08-08T04:00:31.534Z,23.93
2018-08-08T04:01:06.061Z,20.02
2018-08-08T04:01:40.065Z,20.90
2018-08-08T04:02:14.013Z,21.60
2018-08-08T04:02:48.379Z,23.25
2018-08-08T04:03:22.204Z,20.30
2018-08-08T04:03:56.073Z,24.90
2018-08-08T04:04:29.767Z,23.43
2018-08-08T04:05:04.008Z,24.27
2018-08-08T04:05:38.044Z,26.80
2018-08-08T04:06:12.080Z,26.77
2018-08-08T04:06:46.339Z,26.85
2018-08-08T04:07:20.264Z,28.85
2018-08-08T04:07:54.244Z,29.52
2018-08-08T04:08:28.091Z,29.98
2018-08-08T04:09:01.914Z,24.57
2018-08-08T04:09:35.766Z,28.73
2018-08-08T04:10:10.356Z,23.65
2018-08-08T04:10:44.263Z,22.27
2018-08-08T04:11:18.197Z,30.12
2018-08-08T04:11:52.635Z,27.22
2018-08-08T04:12:26.645Z,26.82
2018-08-08T04:13:00.371Z,25.47
2018-08-08T04:13:34.383Z,30.23
2018-08-08T04:14:08.516Z,35.90
2018-08-08T04:14:42.872Z,26.37
2018-08-08T04:15:17.805Z,32.93
2018-08-08T04:15:51.514Z,22.55
2018-08-08T04:16:25.248Z,28.83
2018-08-08T04:17:02.161Z,24.55
2018-08-08T04:17:36.308Z,30.37
2018-08-08T04:18:10.348Z,28.53
2018-08-08T04:18:44.154Z,23.13
2018-08-08T04:19:18.036Z,30.30
2018-08-08T04:19:52.612Z,26.53
2018-08-08T04:20:26.676Z,30.55
2018-08-08T04:21:00.474Z,25.87
2018-08-08T04:21:34.421Z,24.00
2018-08-08T04:22:08.404Z,20.00
2018-08-08T04:22:42.800Z,31.73
2018-08-08T04:23:16.600Z,30.13
2018-08-08T04:23:50.437Z,28.17
2018-08-08T04:24:24.276Z,30.20
2018-08-08T04:24:58.284Z,30.37
2018-08-08T04:25:32.176Z,25.35
2018-08-08T04:26:05.959Z,28.00
2018-08-08T04:26:40.803Z,22.43
2018-08-08T04:27:14.789Z,29.30
2018-08-08T04:27:48.674Z,20.30
2018-08-08T04:28:22.556Z,24.18
2018-08-08T04:28:57.000Z,17.67
2018-08-08T04:29:30.914Z,25.40
2018-08-08T04:30:07.076Z,33.35
2018-08-08T04:30:41.116Z,28.33
2018-08-08T04:31:16.192Z,23.87
2018-08-08T04:31:50.068Z,27.37
2018-08-08T04:32:23.819Z,24.50
2018-08-08T04:32:57.672Z,24.30
2018-08-08T04:33:31.713Z,19.70
2018-08-08T04:34:05.565Z,29.77
2018-08-08T04:34:39.728Z,24.43
2018-08-08T04:35:13.907Z,25.27
2018-08-08T04:35:47.921Z,24.57
2018-08-08T04:36:22.202Z,26.40
2018-08-08T04:36:56.071Z,21.20
2018-08-08T04:37:29.956Z,26.23
2018-08-08T04:38:03.873Z,23.90
2018-08-08T04:38:37.661Z,24.33
2018-08-08T04:39:11.786Z,29.75
2018-08-08T04:39:45.674Z,25.83
2018-08-08T04:40:20.176Z,26.45
2018-08-08T04:40:53.999Z,26.73
2018-08-08T04:41:27.734Z,25.47
2018-08-08T04:42:01.765Z,26.77
2018-08-08T04:42:35.567Z,26.30
2018-08-08T04:43:09.171Z,24.67
2018-08-08T04:43:43.143Z,28.63
2018-08-08T04:44:17.222Z,27.13
2018-08-08T04:44:51.035Z,23.93
2018-08-08T04:45:24.723Z,22.83
2018-08-08T04:45:58.734Z,25.83
2018-08-08T04:46:32.639Z,25.10
2018-08-08T04:47:06.551Z,28.73
2018-08-08T04:47:41.524Z,32.13
2018-08-08T04:48:15.219Z,27.10
2018-08-08T04:48:49.306Z,18.80
2018-08-08T04:49:23.307Z,24.03
2018-08-08T04:49:57.359Z,18.73
2018-08-08T04:50:31.271Z,19.20
2018-08-08T04:51:05.204Z,25.97
2018-08-08T04:51:39.000Z,25.90
2018-08-08T04:52:12.685Z,19.73
2018-08-08T04:52:46.604Z,19.97
2018-08-08T04:53:20.601Z,28.63
2018-08-08T04:53:54.436Z,22.22
2018-08-08T04:54:28.299Z,22.10
2018-08-08T04:55:02.467Z,23.60
2018-08-08T04:55:36.462Z,20.57
2018-08-08T04:56:10.260Z,18.60
2018-08-08T04:56:44.417Z,16.13
2018-08-08T04:57:18.461Z,18.87
2018-08-08T04:57:52.340Z,19.27
2018-08-08T04:58:26.124Z,19.33
2018-08-08T04:59:00.056Z,19.07
2018-08-08T04:59:33.918Z,17.33
2018-08-08T05:00:09.450Z,19.13
2018-08-08T05:00:44.592Z,15.23
2018-08-08T05:01:18.605Z,17.73
2018-08-08T05:01:52.508Z,14.37
2018-08-08T05:02:26.538Z,22.80
2018-08-08T05:03:00.240Z,18.40
2018-08-08T05:03:34.075Z,17.57
2018-08-08T05:04:07.943Z,19.77
2018-08-08T05:04:41.832Z,16.43
2018-08-08T05:05:15.981Z,13.67
2018-08-08T05:05:49.995Z,17.90
2018-08-08T05:06:24.028Z,15.38
2018-08-08T05:06:57.924Z,17.07
2018-08-08T05:07:31.767Z,19.67
2018-08-08T05:08:06.118Z,15.53
2018-08-08T05:08:39.906Z,15.80
2018-08-08T05:09:13.823Z,19.30
2018-08-08T05:09:47.861Z,14.73
2018-08-08T05:10:21.871Z,16.77
2018-08-08T05:10:55.536Z,12.63
2018-08-08T05:11:29.768Z,18.23
2018-08-08T05:12:03.894Z,17.53
2018-08-08T05:12:38.596Z,14.37
2018-08-08T05:13:12.266Z,14.97
2018-08-08T05:13:46.341Z,15.23
2018-08-08T05:14:20.365Z,14.93
2018-08-08T05:14:54.358Z,13.83
2018-08-08T05:15:28.180Z,16.27
2018-08-08T05:16:02.080Z,13.87
2018-08-08T05:16:36.484Z,12.67
2018-08-08T05:17:10.182Z,14.07
2018-08-08T05:17:45.091Z,14.70
2018-08-08T05:18:19.007Z,13.60
2018-08-08T05:18:53.402Z,16.83
2018-08-08T05:19:27.262Z,18.60
2018-08-08T05:20:01.116Z,13.47
2018-08-08T05:20:35.066Z,16.50
2018-08-08T05:21:08.872Z,15.53
2018-08-08T05:21:42.819Z,13.57
2018-08-08T05:22:16.885Z,16.13
2018-08-08T05:22:51.097Z,15.90
2018-08-08T05:23:25.113Z,15.23
2018-08-08T05:23:58.916Z,14.97
2018-08-08T05:24:32.895Z,15.40
2018-08-08T05:25:06.798Z,14.33
2018-08-08T05:25:40.775Z,17.70
2018-08-08T05:26:14.730Z,15.35
2018-08-08T05:26:48.973Z,13.87
2018-08-08T05:27:23.023Z,16.97
2018-08-08T05:27:56.833Z,11.90
2018-08-08T05:28:30.621Z,14.67
2018-08-08T05:29:04.926Z,12.53
2018-08-08T05:29:38.591Z,13.27
2018-08-08T05:30:14.693Z,13.97
2018-08-08T05:30:48.496Z,14.67
2018-08-08T05:31:22.516Z,13.83
2018-08-08T05:31:56.512Z,15.17
2018-08-08T05:32:30.339Z,13.87
2018-08-08T05:33:04.354Z,14.33
2018-08-08T05:33:38.428Z,12.07
2018-08-08T05:34:12.256Z,14.77
2018-08-08T05:34:46.234Z,17.50
2018-08-08T05:35:21.265Z,13.63
2018-08-08T05:35:55.505Z,15.77
2018-08-08T05:36:29.460Z,12.00
2018-08-08T05:37:03.601Z,11.03
2018-08-08T05:37:37.672Z,15.03
2018-08-08T05:38:11.656Z,12.97
2018-08-08T05:38:45.604Z,14.30
2018-08-08T05:39:19.343Z,14.33
2018-08-08T05:39:53.567Z,11.00
2018-08-08T05:40:27.858Z,13.77
2018-08-08T05:41:01.954Z,14.97
2018-08-08T05:41:35.781Z,12.17
2018-08-08T05:42:09.645Z,10.03
2018-08-08T05:42:43.748Z,14.87
2018-08-08T05:43:17.865Z,14.20
2018-08-08T05:43:51.987Z,17.00
2018-08-08T05:44:25.944Z,12.73
2018-08-08T05:44:59.847Z,10.87
2018-08-08T05:45:33.768Z,10.33
2018-08-08T05:46:07.616Z,16.63
2018-08-08T05:46:41.531Z,11.27
2018-08-08T05:47:15.387Z,15.30
2018-08-08T05:47:50.780Z,15.03
2018-08-08T05:48:24.871Z,11.60
2018-08-08T05:49:00.003Z,10.63
2018-08-08T05:49:33.872Z,14.70
2018-08-08T05:50:09.585Z,11.73
2018-08-08T05:50:43.427Z,15.47
2018-08-08T05:51:17.348Z,13.47
2018-08-08T05:51:52.008Z,11.97
2018-08-08T05:52:26.100Z,13.97
2018-08-08T05:53:00.052Z,9.43
2018-08-08T05:53:33.954Z,13.63
2018-08-08T05:54:07.856Z,11.00
2018-08-08T05:54:41.863Z,12.07
2018-08-08T05:55:17.312Z,12.40
2018-08-08T05:55:51.405Z,14.03
2018-08-08T05:56:25.464Z,15.37
2018-08-08T05:56:59.376Z,10.83
2018-08-08T05:57:33.382Z,14.23
2018-08-08T05:58:07.787Z,10.90
2018-08-08T05:58:41.684Z,14.47
2018-08-08T05:59:15.447Z,10.60
2018-08-08T05:59:49.466Z,14.97
2018-08-08T06:00:27.525Z,13.13
2018-08-08T06:01:01.279Z,12.70
2018-08-08T06:01:35.169Z,10.53
2018-08-08T06:02:08.985Z,12.00
2018-08-08T06:02:42.809Z,13.37
2018-08-08T06:03:16.726Z,9.43
2018-08-08T06:03:50.688Z,9.80
2018-08-08T06:04:24.564Z,15.77
2018-08-08T06:04:58.696Z,14.80
2018-08-08T06:05:33.136Z,12.33
2018-08-08T06:06:06.984Z,10.40
2018-08-08T06:06:40.815Z,11.03
2018-08-08T06:07:14.606Z,9.17
2018-08-08T06:07:56.085Z,14.80
2018-08-08T06:08:30.207Z,12.23
2018-08-08T06:09:06.931Z,9.03
2018-08-08T06:09:40.892Z,8.80
2018-08-08T06:10:14.806Z,11.20
2018-08-08T06:10:48.871Z,11.30
2018-08-08T06:11:22.855Z,11.40
2018-08-08T06:11:56.979Z,9.47
2018-08-08T06:12:30.857Z,11.03
2018-08-08T06:13:05.036Z,10.03
2018-08-08T06:13:38.980Z,11.47
2018-08-08T06:14:12.849Z,12.23
2018-08-08T06:14:46.720Z,11.90
2018-08-08T06:15:20.614Z,12.50
2018-08-08T06:15:54.464Z,12.30
2018-08-08T06:16:28.489Z,10.63
2018-08-08T06:17:02.437Z,11.40
2018-08-08T06:17:37.023Z,11.00
2018-08-08T06:18:10.823Z,10.03
2018-08-08T06:18:44.675Z,7.63
2018-08-08T06:19:18.473Z,9.30
2018-08-08T06:19:54.186Z,8.63
2018-08-08T06:20:28.095Z,9.00
2018-08-08T06:21:01.971Z,8.73
2018-08-08T06:21:37.232Z,11.07
2018-08-08T06:22:12.722Z,9.33
2018-08-08T06:22:47.427Z,10.80
2018-08-08T06:23:21.299Z,9.47
2018-08-08T06:23:55.186Z,10.10
2018-08-08T06:24:29.294Z,9.80
2018-08-08T06:25:04.290Z,9.07
2018-08-08T06:25:38.129Z,9.80
2018-08-08T06:26:11.963Z,11.93
2018-08-08T06:26:45.743Z,10.70
2018-08-08T06:27:19.756Z,10.03
2018-08-08T06:27:53.551Z,10.93
2018-08-08T06:28:27.582Z,11.33
2018-08-08T06:29:01.953Z,9.77
2018-08-08T06:29:36.125Z,9.57
2018-08-08T06:30:16.977Z,11.60
2018-08-08T06:30:50.923Z,8.60
2018-08-08T06:31:24.973Z,12.67
2018-08-08T06:31:58.851Z,13.17
2018-08-08T06:32:33.170Z,11.50
2018-08-08T06:33:06.998Z,10.40
2018-08-08T06:33:41.034Z,11.87
2018-08-08T06:34:15.031Z,6.70
2018-08-08T06:34:48.822Z,8.43
2018-08-08T06:35:24.851Z,13.77
2018-08-08T06:35:58.787Z,11.63
2018-08-08T06:36:32.803Z,12.53
2018-08-08T06:37:06.743Z,14.03
2018-08-08T06:37:40.992Z,8.00
2018-08-08T06:38:15.012Z,9.93
2018-08-08T06:38:48.832Z,10.00
2018-08-08T06:39:22.752Z,9.03
2018-08-08T06:39:56.847Z,9.23
2018-08-08T06:40:30.971Z,9.03
2018-08-08T06:41:05.006Z,9.73
2018-08-08T06:41:39.153Z,15.33
2018-08-08T06:42:12.892Z,9.03
2018-08-08T06:42:47.031Z,9.83
2018-08-08T06:43:20.872Z,6.80
2018-08-08T06:43:54.761Z,9.20
2018-08-08T06:44:28.579Z,8.33
2018-08-08T06:45:02.821Z,8.73
2018-08-08T06:45:36.920Z,12.20
2018-08-08T06:46:10.780Z,10.83
2018-08-08T06:46:44.744Z,6.63
2018-08-08T06:47:18.557Z,11.40
2018-08-08T06:47:52.640Z,11.37
2018-08-08T06:48:26.502Z,8.90
2018-08-08T06:49:00.466Z,7.93
2018-08-08T06:49:35.106Z,7.70
2018-08-08T06:50:10.047Z,9.97
2018-08-08T06:50:43.680Z,9.97
2018-08-08T06:51:17.679Z,7.63
2018-08-08T06:51:51.570Z,8.93
2018-08-08T06:52:25.303Z,10.07
2018-08-08T06:52:59.366Z,8.97
2018-08-08T06:53:33.980Z,9.23
2018-08-08T06:54:08.261Z,8.03
2018-08-08T06:54:42.253Z,9.70
2018-08-08T06:55:16.798Z,11.23
2018-08-08T06:55:50.748Z,7.70
2018-08-08T06:56:24.567Z,11.03
2018-08-08T06:56:58.407Z,9.53
2018-08-08T06:57:32.229Z,11.08
2018-08-08T06:58:06.475Z,7.03
2018-08-08T06:58:40.378Z,10.13
2018-08-08T06:59:14.221Z,13.70
2018-08-08T06:59:48.160Z,8.73
2018-08-08T07:00:26.827Z,12.80
2018-08-08T07:01:01.321Z,7.77
2018-08-08T07:01:35.475Z,10.70
2018-08-08T07:02:09.525Z,9.37
2018-08-08T07:02:44.056Z,9.77
2018-08-08T07:03:17.904Z,9.57
2018-08-08T07:03:51.953Z,14.50
2018-08-08T07:04:25.762Z,7.27
2018-08-08T07:04:59.413Z,16.87
2018-08-08T07:05:33.484Z,13.00
2018-08-08T07:06:07.935Z,11.10
2018-08-08T07:06:41.827Z,9.90
2018-08-08T07:07:15.795Z,10.00
2018-08-08T07:07:52.582Z,9.60
2018-08-08T07:08:26.675Z,8.23
2018-08-08T07:09:00.265Z,9.20
2018-08-08T07:09:34.293Z,11.63
2018-08-08T07:10:08.967Z,8.25
2018-08-08T07:10:42.775Z,11.57
2018-08-08T07:11:16.835Z,12.73
2018-08-08T07:11:50.735Z,10.40
2018-08-08T07:12:24.521Z,7.43
2018-08-08T07:12:58.415Z,9.83
2018-08-08T07:13:32.426Z,11.40
2018-08-08T07:14:07.117Z,8.88
2018-08-08T07:14:40.925Z,7.53
2018-08-08T07:15:16.099Z,9.07
2018-08-08T07:15:49.953Z,11.55
2018-08-08T07:16:24.000Z,11.63
2018-08-08T07:16:57.825Z,11.07
2018-08-08T07:17:31.730Z,10.93
2018-08-08T07:18:06.802Z,12.07
2018-08-08T07:18:40.738Z,10.53
2018-08-08T07:19:14.898Z,11.87
2018-08-08T07:19:48.774Z,9.40
2018-08-08T07:20:22.560Z,10.03
2018-08-08T07:20:56.457Z,11.57
2018-08-08T07:21:30.284Z,8.93
2018-08-08T07:22:04.204Z,8.43
2018-08-08T07:22:38.439Z,8.28
2018-08-08T07:23:12.784Z,8.33
2018-08-08T07:23:46.855Z,8.10